• Join FlightAware (Why Join?)
  • Login
  • US Flag 
06:02AM EDT


 

Airport Tracker/Info


-or-


 

Live Flight TrackerFlight Track Log ✈ N682RW ✈ 04-Sep-2013 ✈ KBOS - KMKC

Flight Track Log - Related Links

Times and Time Zones

All times are in EDT time to prevent confusion due to time zone crossing. See the N682RW flight status page for this flight to view local times or setup timezone preferences in your user account.

Time Position Orientation Groundspeed Altitude Reporting Facility
EDT Latitude Longitude Course Direction KTS MPH feet Rate Location/Type
01:09AM 42.3500 -71.0167 132° Southeast 178 205 700  Level KA90
01:10AM 42.3167 -70.9667 132° Southeast 237 273 2,600 2,220 Climbing KA90
01:11AM 42.3167 -70.8667 90° East 261 300 5,400 1,080 Climbing KA90
01:17AM 42.0786 -71.6597 262° West  Level FlightAware Approximate
01:24AM 41.8919 -72.6993 256° West  Level FlightAware Approximate
01:25AM 41.8632 -72.8471 251° West  Level FlightAware Approximate
01:26AM 41.8271 -72.9918 252° West  Level FlightAware Approximate
01:27AM 41.7958 -73.1381 262° West  Level FlightAware Approximate
01:28AM 41.7757 -73.2880 255° West  Level FlightAware Approximate
01:29AM 41.7462 -73.4353 255° West  Level FlightAware Approximate
01:30AM 41.7165 -73.5824 255° West  Level FlightAware Approximate
01:31AM 41.6866 -73.7294 255° West  Level FlightAware Approximate
01:32AM 41.6565 -73.8762 255° West  Level FlightAware Approximate
01:33AM 41.6262 -74.0229 255° West  Level FlightAware Approximate
01:34AM 41.5958 -74.1695 255° West  Level FlightAware Approximate
01:35AM 41.5651 -74.3159 254° West  Level FlightAware Approximate
01:36AM 41.5343 -74.4622 254° West  Level FlightAware Approximate
01:36AM 41.6744 -73.8817 254° West 429 494 32,000  Level New York Center
01:37AM 41.5022 -74.6078 254° West  Level FlightAware Approximate
01:37AM 41.6411 -74.0356 254° West 435 501 32,000  Level New York Center
01:38AM 41.4698 -74.7534 254° West  Level FlightAware Approximate
01:38AM 41.6100 -74.1864 255° West 430 495 32,000  Level New York Center
01:39AM 41.4373 -74.8988 253° West  Level FlightAware Approximate
01:39AM 41.5778 -74.3594 256° West 430 495 32,000  Level New York Center
01:40AM 41.4061 -75.0447 254° West  Level FlightAware Approximate
01:40AM 41.5500 -74.5103 256° West 430 495 32,000  Level New York Center
01:41AM 41.3749 -75.1905 254° West  Level FlightAware Approximate
01:41AM 41.5144 -74.6497 251° West 435 501 32,000  Level New York Center
01:42AM 41.4800 -74.8056 254° West 435 501 32,000  Level New York Center
01:43AM 41.4478 -74.9586 254° West 430 495 32,000  Level New York Center
01:44AM 41.4150 -75.1114 254° West 430 495 32,000  Level New York Center
01:45AM 41.4114 -75.2661 268° West 430 495 32,000  Level New York Center
01:46AM 41.4053 -75.4233 267° West 423 487 32,000  Level New York Center
01:47AM 41.3972 -75.5775 266° West 417 480 32,000  Level New York Center
01:48AM 41.3883 -75.7400 266° West 429 494 32,000  Level New York Center
01:49AM 41.3817 -75.8972 267° West 435 501 32,000  Level New York Center
01:50AM 41.3728 -76.0486 266° West 435 501 32,000  Level New York Center
01:51AM 41.3650 -76.2222 267° West 424 488 32,000  Level New York Center
01:52AM 41.3578 -76.3792 267° West 429 494 32,000  Level New York Center
01:53AM 41.3478 -76.5442 265° West 441 507 32,000  Level New York Center
01:54AM 41.3378 -76.7008 265° West 436 502 32,000  Level New York Center
01:55AM 41.3281 -76.8547 265° West 431 496 32,000  Level New York Center
01:56AM 41.3200 -77.0086 266° West 425 489 32,000  Level New York Center
01:57AM 41.3117 -77.1653 266° West 425 489 32,000  Level New York Center
01:59AM 41.2933 -77.4325 265° West 423 487 32,000  Level Cleveland Center
02:00AM 41.2850 -77.5847 266° West 423 487 32,000  Level Cleveland Center
02:01AM 41.2722 -77.7403 264° West 423 487 32,000  Level Cleveland Center
02:02AM 41.2636 -77.8981 266° West 429 494 32,000  Level Cleveland Center
02:03AM 41.2525 -78.0558 265° West 429 494 32,000  Level Cleveland Center
02:04AM 41.2433 -78.2108 266° West 429 494 32,000  Level Cleveland Center
02:05AM 41.2336 -78.3522 265° West 429 494 32,000  Level Cleveland Center
02:06AM 41.2242 -78.5097 265° West 429 494 32,000  Level Cleveland Center
02:07AM 41.2103 -78.6675 263° West 429 494 32,000  Level Cleveland Center
02:08AM 41.1981 -78.8281 264° West 429 494 32,000  Level Cleveland Center
02:09AM 41.1858 -78.9856 264° West 429 494 32,000  Level Cleveland Center
02:10AM 41.1733 -79.1458 264° West 429 494 32,000  Level Cleveland Center
02:11AM 41.1606 -79.3006 264° West 429 494 32,000  Level Cleveland Center
02:12AM 41.1478 -79.4608 264° West 429 494 32,000  Level Cleveland Center
02:13AM 41.1367 -79.6156 265° West 429 494 32,000  Level Cleveland Center
02:14AM 41.1233 -79.7728 264° West 429 494 32,000  Level Cleveland Center
02:15AM 41.1097 -79.9328 264° West 429 494 32,000  Level Cleveland Center
02:16AM 41.0939 -80.0872 262° West 429 494 32,000  Level Cleveland Center
02:17AM 41.0819 -80.2442 264° West 429 494 32,000  Level Cleveland Center
02:18AM 41.0678 -80.4014 263° West 429 494 32,000  Level Cleveland Center
02:19AM 41.0531 -80.5611 263° West 434 499 32,000  Level Cleveland Center
02:20AM 41.0386 -80.7181 263° West 434 499 32,000  Level Cleveland Center
02:21AM 41.0236 -80.8747 263° West 434 499 32,000  Level Cleveland Center
02:22AM 41.0106 -81.0317 264° West 434 499 32,000  Level Cleveland Center
02:23AM 40.9911 -81.1911 261° West 434 499 32,000  Level Cleveland Center
02:24AM 40.9756 -81.3478 263° West 434 499 32,000  Level Cleveland Center
02:25AM 40.9597 -81.5042 262° West 434 499 32,000 300 Level Cleveland Center
02:26AM 40.9439 -81.6606 262° West 434 499 32,700 720 Climbing Cleveland Center
02:27AM 40.9275 -81.8336 263° West 434 499 33,500 600 Climbing Cleveland Center
02:28AM 40.9089 -81.9869 261° West 434 499 34,000 240 Climbing Cleveland Center
02:29AM 40.8944 -82.1461 263° West 429 494 34,000  Level Cleveland Center
02:30AM 40.8775 -82.3022 262° West 429 494 34,000  Level Cleveland Center
02:31AM 40.8650 -82.4300 263° West 432 497 34,000  Level Indianapolis Center
02:32AM 40.8511 -82.5625 262° West 433 498 34,000  Level Indianapolis Center
02:33AM 40.8325 -82.7228 261° West 436 502 34,000  Level Indianapolis Center
02:34AM 40.8150 -82.8814 262° West 435 501 34,000  Level Indianapolis Center
02:35AM 40.7978 -83.0417 262° West 436 502 34,000  Level Indianapolis Center
02:36AM 40.7769 -83.2142 261° West 443 510 34,000  Level Indianapolis Center
02:37AM 40.7600 -83.3728 262° West 440 506 34,000  Level Indianapolis Center
02:38AM 40.7403 -83.5300 261° West 438 504 34,000  Level Indianapolis Center
02:39AM 40.7225 -83.6861 262° West 437 503 34,000  Level Indianapolis Center
02:40AM 40.7039 -83.8397 261° West 427 491 34,000  Level Indianapolis Center
02:41AM 40.6844 -83.9944 261° West 430 495 34,000  Level Indianapolis Center
02:42AM 40.6656 -84.1492 261° West 431 496 34,000  Level Indianapolis Center
02:43AM 40.6464 -84.3014 261° West 425 489 34,000  Level Indianapolis Center
02:44AM 40.6283 -84.4536 261° West 423 487 34,000  Level Indianapolis Center
02:45AM 40.6083 -84.6044 260° West 420 483 34,000  Level Indianapolis Center
02:46AM 40.5897 -84.7544 261° West 418 481 34,000  Level Indianapolis Center
02:47AM 40.5703 -84.9061 260° West 421 484 34,000  Level Indianapolis Center
02:48AM 40.5494 -85.0514 259° West 422 486 34,000  Level Indianapolis Center
02:49AM 40.5261 -85.2322 260° West 423 487 34,000  Level Chicago Center
02:50AM 40.5047 -85.3825 259° West 421 484 34,000  Level Chicago Center
02:51AM 40.4858 -85.5339 261° West 421 484 34,000  Level Chicago Center
02:52AM 40.4653 -85.6825 260° West 419 482 34,000  Level Chicago Center
02:53AM 40.4450 -85.8322 260° West 419 482 34,000  Level Chicago Center
02:54AM 40.4233 -85.9822 259° West 421 484 34,000  Level Chicago Center
02:55AM 40.4014 -86.1322 259° West 422 486 34,000  Level Chicago Center
02:56AM 40.3803 -86.2844 260° West 427 491 34,000  Level Chicago Center
02:57AM 40.3592 -86.4356 260° West 426 490 34,000  Level Chicago Center
02:58AM 40.3364 -86.5872 259° West 427 491 34,000  Level Chicago Center
02:59AM 40.3150 -86.7394 260° West 429 494 34,000  Level Chicago Center
03:00AM 40.2914 -86.8894 258° West 424 488 34,000  Level Chicago Center
03:01AM 40.2694 -87.0394 259° West 422 486 34,000  Level Chicago Center
03:02AM 40.2464 -87.1906 259° West 427 491 34,000  Level Chicago Center
03:03AM 40.2233 -87.3425 259° West 429 494 34,000  Level Chicago Center
03:04AM 40.1967 -87.5133 259° West 425 489 34,000  Level Chicago Center
03:05AM 40.1769 -87.6461 259° West 429 494 34,000  Level Chicago Center
03:06AM 40.1533 -87.7975 259° West 427 491 34,000  Level Chicago Center
03:07AM 40.1294 -87.9503 258° West 431 496 34,000  Level Chicago Center
03:08AM 40.1044 -88.1042 258° West 433 498 34,000  Level Chicago Center
03:09AM 40.0772 -88.2725 258° West 432 497 34,000  Level Chicago Center
03:10AM 40.0522 -88.4269 258° West 433 498 34,000  Level Chicago Center
03:11AM 40.0267 -88.5819 258° West 435 501 34,000  Level Chicago Center
03:12AM 40.0008 -88.7356 258° West 433 498 34,000  Level Chicago Center
03:13AM 39.9756 -88.8900 258° West 434 499 34,000  Level Chicago Center
03:14AM 39.9472 -89.0469 257° West 441 507 34,000  Level Chicago Center
03:15AM 39.9203 -89.2011 257° West 438 504 34,000  Level Chicago Center
03:16AM 39.9011 -89.3244 259° West 434 499 34,000  Level Kansas City Center
03:17AM 39.8742 -89.4797 257° West 436 502 34,000  Level Kansas City Center
03:18AM 39.8478 -89.6353 258° West 439 505 34,000  Level Kansas City Center
03:19AM 39.8417 -89.7908 267° West 434 499 34,000  Level Kansas City Center
03:20AM 39.8425 -89.9475 270° West 431 496 34,000  Level Kansas City Center
03:21AM 39.8444 -90.1044 271° West 432 497 34,000  Level Kansas City Center
03:22AM 39.8456 -90.2611 271° West 432 497 34,000  Level Kansas City Center
03:23AM 39.8475 -90.4172 271° West 431 496 34,000  Level Kansas City Center
03:24AM 39.8464 -90.5753 270° West 434 499 34,000  Level Kansas City Center
03:25AM 39.8344 -90.7325 264° West 439 505 34,000  Level Kansas City Center
03:26AM 39.8117 -90.8889 259° West 438 504 34,000  Level Kansas City Center
03:27AM 39.7883 -91.0494 259° West 442 509 34,000  Level Kansas City Center
03:28AM 39.7658 -91.2056 259° West 442 509 34,000  Level Kansas City Center
03:29AM 39.7419 -91.3622 259° West 444 511 34,000  Level Kansas City Center
03:30AM 39.7186 -91.5192 259° West 445 512 34,000  Level Kansas City Center
03:31AM 39.6950 -91.6750 259° West 443 510 34,000  Level Kansas City Center
03:32AM 39.6711 -91.8308 259° West 443 510 34,000  Level Kansas City Center
03:33AM 39.6472 -91.9867 259° West 443 510 34,000  Level Kansas City Center
03:34AM 39.6242 -92.1428 259° West 442 509 34,000 -360 Level Kansas City Center
03:35AM 39.5942 -92.3317 258° West 445 512 33,300 -1,200 Descending Kansas City Center
03:36AM 39.5697 -92.4911 259° West 450 518 31,600 -2,340 Descending Kansas City Center
03:37AM 39.5431 -92.6514 258° West 454 522 28,700 -2,700 Descending Kansas City Center
03:38AM 39.5181 -92.8122 259° West 456 525 26,200 -2,340 Descending Kansas City Center
03:39AM 39.4922 -92.9650 258° West 447 514 24,000 -2,340 Descending Kansas City Center
03:40AM 39.4686 -93.1108 258° West 429 494 21,600 -2,340 Descending Kansas City Center
03:41AM 39.4458 -93.2533 258° West 413 475 19,400 -2,340 Descending Kansas City Center
03:42AM 39.4219 -93.3892 257° West 397 457 17,000 -2,280 Descending Kansas City Center
03:43AM 39.4008 -93.5250 259° West 389 448 14,900 -2,280 Descending Kansas City Center
03:44AM 39.3789 -93.6536 258° West 372 428 12,500 -1,800 Descending Kansas City Center
03:45AM 39.3583 -93.7769 258° West 357 411 11,300 -1,080 Descending Kansas City Center
03:46AM 39.3397 -93.8814 257° West 316 364 10,400 -1,380 Descending Kansas City Center
03:47AM 39.3206 -93.9964 258° West 295 339 8,600 -1,620 Descending Kansas City Center
03:48AM 39.3036 -94.0947 257° West 293 337 7,200 -1,440 Descending Kansas City Center
03:49AM 39.2875 -94.1911 258° West 289 333 5,700 -1,560 Descending Kansas City Center
03:50AM 39.2681 -94.2994 257° West 278 320 4,100 -1,200 Descending Kansas City Center
03:51AM 39.2542 -94.3769 257° West 233 268 3,300 -600 Descending Kansas City Center
03:52AM 39.2403 -94.4492 256° West 219 252 3,000 -360 Descending Kansas City Center
03:53AM 39.2194 -94.5267 251° West 201 231 2,600 -600 Descending Kansas City Center
03:54AM 39.1908 -94.5708 230° Southwest 166 191 1,900 -720 Descending Kansas City Center
03:55AM 39.1556 -94.5833 195° South 137 158 1,200 -540 Descending Kansas City Center
03:56AM 39.1189 -94.5944 193° South 134 154 900 -300 Descending Kansas City Center